sensor_id;sensor_type;location;lat;lon;timestamp;P1;durP1;ratioP1;P2;durP2;ratioP2
11123;SDS011;5616;42.692;23.312;2022-11-06T00:01:38;30.20;;;23.40;;
11123;SDS011;5616;42.692;23.312;2022-11-06T00:04:05;32.33;;;21.80;;
11123;SDS011;5616;42.692;23.312;2022-11-06T00:06:32;31.27;;;22.77;;
11123;SDS011;5616;42.692;23.312;2022-11-06T00:09:14;33.67;;;22.77;;
11123;SDS011;5616;42.692;23.312;2022-11-06T00:11:42;31.37;;;21.90;;
11123;SDS011;5616;42.692;23.312;2022-11-06T00:14:11;31.00;;;21.63;;
11123;SDS011;5616;42.692;23.312;2022-11-06T00:16:40;30.37;;;22.20;;
11123;SDS011;5616;42.692;23.312;2022-11-06T00:19:08;30.30;;;20.70;;
11123;SDS011;5616;42.692;23.312;2022-11-06T00:21:35;31.57;;;22.33;;
11123;SDS011;5616;42.692;23.312;2022-11-06T00:24:03;31.73;;;22.47;;
11123;SDS011;5616;42.692;23.312;2022-11-06T00:26:33;33.97;;;22.17;;
11123;SDS011;5616;42.692;23.312;2022-11-06T00:29:00;28.33;;;21.07;;
11123;SDS011;5616;42.692;23.312;2022-11-06T00:31:30;31.83;;;21.43;;
11123;SDS011;5616;42.692;23.312;2022-11-06T00:33:59;33.47;;;21.70;;
11123;SDS011;5616;42.692;23.312;2022-11-06T00:36:27;30.10;;;22.20;;
11123;SDS011;5616;42.692;23.312;2022-11-06T00:38:56;31.37;;;21.73;;
11123;SDS011;5616;42.692;23.312;2022-11-06T00:41:23;34.50;;;22.50;;
11123;SDS011;5616;42.692;23.312;2022-11-06T00:43:52;35.53;;;22.00;;
11123;SDS011;5616;42.692;23.312;2022-11-06T00:46:21;30.60;;;20.97;;
11123;SDS011;5616;42.692;23.312;2022-11-06T00:48:50;30.50;;;21.57;;
11123;SDS011;5616;42.692;23.312;2022-11-06T00:51:19;29.33;;;20.23;;
11123;SDS011;5616;42.692;23.312;2022-11-06T00:53:51;28.37;;;20.80;;
11123;SDS011;5616;42.692;23.312;2022-11-06T00:56:20;27.57;;;20.43;;
11123;SDS011;5616;42.692;23.312;2022-11-06T00:58:48;28.57;;;21.27;;
11123;SDS011;5616;42.692;23.312;2022-11-06T01:01:17;26.57;;;20.27;;
11123;SDS011;5616;42.692;23.312;2022-11-06T01:03:46;27.27;;;20.13;;
11123;SDS011;5616;42.692;23.312;2022-11-06T01:06:16;31.57;;;20.47;;
11123;SDS011;5616;42.692;23.312;2022-11-06T01:08:45;28.83;;;20.13;;
11123;SDS011;5616;42.692;23.312;2022-11-06T01:11:14;27.77;;;20.00;;
11123;SDS011;5616;42.692;23.312;2022-11-06T01:13:43;25.33;;;18.70;;
11123;SDS011;5616;42.692;23.312;2022-11-06T01:16:12;26.03;;;19.00;;
11123;SDS011;5616;42.692;23.312;2022-11-06T01:18:40;28.20;;;20.00;;
11123;SDS011;5616;42.692;23.312;2022-11-06T01:21:09;28.13;;;19.93;;
11123;SDS011;5616;42.692;23.312;2022-11-06T01:23:38;28.23;;;19.20;;
11123;SDS011;5616;42.692;23.312;2022-11-06T01:26:06;24.90;;;17.03;;
11123;SDS011;5616;42.692;23.312;2022-11-06T01:28:35;28.25;;;20.77;;
11123;SDS011;5616;42.692;23.312;2022-11-06T01:31:03;22.10;;;17.47;;
11123;SDS011;5616;42.692;23.312;2022-11-06T01:33:31;23.57;;;15.80;;
11123;SDS011;5616;42.692;23.312;2022-11-06T01:35:58;20.43;;;14.47;;
11123;SDS011;5616;42.692;23.312;2022-11-06T01:38:25;24.17;;;16.00;;
11123;SDS011;5616;42.692;23.312;2022-11-06T01:40:53;31.70;;;15.63;;
11123;SDS011;5616;42.692;23.312;2022-11-06T01:43:21;16.90;;;10.80;;
11123;SDS011;5616;42.692;23.312;2022-11-06T01:45:50;19.87;;;11.40;;
11123;SDS011;5616;42.692;23.312;2022-11-06T01:48:20;23.77;;;13.93;;
11123;SDS011;5616;42.692;23.312;2022-11-06T01:50:52;20.37;;;16.03;;
11123;SDS011;5616;42.692;23.312;2022-11-06T01:53:22;25.57;;;16.67;;
11123;SDS011;5616;42.692;23.312;2022-11-06T01:55:50;24.67;;;16.67;;
11123;SDS011;5616;42.692;23.312;2022-11-06T01:58:21;32.00;;;17.50;;
11123;SDS011;5616;42.692;23.312;2022-11-06T02:00:51;22.93;;;15.30;;
11123;SDS011;5616;42.692;23.312;2022-11-06T02:03:18;16.13;;;11.23;;
11123;SDS011;5616;42.692;23.312;2022-11-06T02:05:45;15.03;;;11.43;;
11123;SDS011;5616;42.692;23.312;2022-11-06T02:08:13;21.73;;;10.67;;
11123;SDS011;5616;42.692;23.312;2022-11-06T02:10:42;13.47;;;9.43;;
11123;SDS011;5616;42.692;23.312;2022-11-06T02:13:15;17.60;;;10.17;;
11123;SDS011;5616;42.692;23.312;2022-11-06T02:15:50;14.00;;;9.30;;
11123;SDS011;5616;42.692;23.312;2022-11-06T02:18:48;13.77;;;8.97;;
11123;SDS011;5616;42.692;23.312;2022-11-06T02:27:12;9.73;;;8.50;;
11123;SDS011;5616;42.692;23.312;2022-11-06T02:29:44;11.53;;;8.70;;
11123;SDS011;5616;42.692;23.312;2022-11-06T02:32:17;14.50;;;8.97;;
11123;SDS011;5616;42.692;23.312;2022-11-06T02:34:48;12.13;;;8.50;;
11123;SDS011;5616;42.692;23.312;2022-11-06T02:37:20;16.30;;;8.40;;
11123;SDS011;5616;42.692;23.312;2022-11-06T02:39:53;12.87;;;8.90;;
11123;SDS011;5616;42.692;23.312;2022-11-06T02:42:24;16.00;;;9.07;;
11123;SDS011;5616;42.692;23.312;2022-11-06T02:44:54;13.33;;;8.67;;
11123;SDS011;5616;42.692;23.312;2022-11-06T02:47:23;11.87;;;8.80;;
11123;SDS011;5616;42.692;23.312;2022-11-06T02:49:55;15.83;;;8.43;;
11123;SDS011;5616;42.692;23.312;2022-11-06T02:52:29;15.53;;;8.53;;
11123;SDS011;5616;42.692;23.312;2022-11-06T02:55:03;13.67;;;9.37;;
11123;SDS011;5616;42.692;23.312;2022-11-06T02:58:10;12.83;;;9.00;;
11123;SDS011;5616;42.692;23.312;2022-11-06T03:00:39;15.03;;;8.63;;
11123;SDS011;5616;42.692;23.312;2022-11-06T03:03:11;11.20;;;8.63;;
11123;SDS011;5616;42.692;23.312;2022-11-06T03:05:45;14.80;;;8.07;;
11123;SDS011;5616;42.692;23.312;2022-11-06T03:08:19;14.30;;;8.00;;
11123;SDS011;5616;42.692;23.312;2022-11-06T03:10:54;14.80;;;7.90;;
11123;SDS011;5616;42.692;23.312;2022-11-06T03:13:33;11.27;;;7.70;;
11123;SDS011;5616;42.692;23.312;2022-11-06T03:16:11;13.40;;;9.20;;
11123;SDS011;5616;42.692;23.312;2022-11-06T03:18:48;15.27;;;9.10;;
11123;SDS011;5616;42.692;23.312;2022-11-06T03:21:20;14.17;;;9.20;;
11123;SDS011;5616;42.692;23.312;2022-11-06T03:23:53;11.93;;;8.07;;
11123;SDS011;5616;42.692;23.312;2022-11-06T03:26:23;12.27;;;8.03;;
11123;SDS011;5616;42.692;23.312;2022-11-06T03:28:58;12.73;;;7.97;;
11123;SDS011;5616;42.692;23.312;2022-11-06T03:31:33;13.87;;;7.60;;
11123;SDS011;5616;42.692;23.312;2022-11-06T03:34:04;10.73;;;7.23;;
11123;SDS011;5616;42.692;23.312;2022-11-06T03:36:35;13.57;;;6.97;;
11123;SDS011;5616;42.692;23.312;2022-11-06T03:39:07;14.47;;;7.77;;
11123;SDS011;5616;42.692;23.312;2022-11-06T03:41:39;8.73;;;6.90;;
11123;SDS011;5616;42.692;23.312;2022-11-06T03:44:12;10.87;;;6.93;;
11123;SDS011;5616;42.692;23.312;2022-11-06T03:46:44;11.97;;;7.07;;
11123;SDS011;5616;42.692;23.312;2022-11-06T03:49:14;13.03;;;7.50;;
11123;SDS011;5616;42.692;23.312;2022-11-06T03:51:48;11.70;;;7.67;;
11123;SDS011;5616;42.692;23.312;2022-11-06T03:54:19;11.10;;;6.90;;
11123;SDS011;5616;42.692;23.312;2022-11-06T03:56:52;11.43;;;7.23;;
11123;SDS011;5616;42.692;23.312;2022-11-06T03:59:23;12.57;;;8.17;;
11123;SDS011;5616;42.692;23.312;2022-11-06T04:01:54;14.13;;;8.13;;
11123;SDS011;5616;42.692;23.312;2022-11-06T04:04:23;11.67;;;7.80;;
11123;SDS011;5616;42.692;23.312;2022-11-06T04:06:56;9.77;;;7.30;;
11123;SDS011;5616;42.692;23.312;2022-11-06T04:09:28;10.90;;;7.83;;
11123;SDS011;5616;42.692;23.312;2022-11-06T04:12:18;13.43;;;7.17;;
11123;SDS011;5616;42.692;23.312;2022-11-06T04:15:07;9.97;;;6.30;;
11123;SDS011;5616;42.692;23.312;2022-11-06T04:17:37;12.43;;;7.20;;
11123;SDS011;5616;42.692;23.312;2022-11-06T04:20:07;12.00;;;7.00;;
11123;SDS011;5616;42.692;23.312;2022-11-06T04:23:00;9.70;;;6.73;;
11123;SDS011;5616;42.692;23.312;2022-11-06T04:25:39;12.60;;;7.40;;
11123;SDS011;5616;42.692;23.312;2022-11-06T04:28:35;12.73;;;7.00;;
11123;SDS011;5616;42.692;23.312;2022-11-06T04:31:11;11.23;;;7.00;;
11123;SDS011;5616;42.692;23.312;2022-11-06T04:33:44;12.07;;;7.80;;
11123;SDS011;5616;42.692;23.312;2022-11-06T04:36:20;14.67;;;7.67;;
11123;SDS011;5616;42.692;23.312;2022-11-06T04:38:55;12.10;;;7.13;;
11123;SDS011;5616;42.692;23.312;2022-11-06T04:41:32;13.47;;;7.60;;
11123;SDS011;5616;42.692;23.312;2022-11-06T04:44:02;12.23;;;7.73;;
11123;SDS011;5616;42.692;23.312;2022-11-06T04:46:35;12.37;;;7.77;;
11123;SDS011;5616;42.692;23.312;2022-11-06T04:49:06;12.47;;;7.63;;
11123;SDS011;5616;42.692;23.312;2022-11-06T04:51:35;9.47;;;7.50;;
11123;SDS011;5616;42.692;23.312;2022-11-06T04:54:04;12.20;;;8.43;;
11123;SDS011;5616;42.692;23.312;2022-11-06T04:56:34;13.70;;;7.57;;
11123;SDS011;5616;42.692;23.312;2022-11-06T04:59:02;12.67;;;8.47;;
11123;SDS011;5616;42.692;23.312;2022-11-06T05:01:29;14.00;;;8.57;;
11123;SDS011;5616;42.692;23.312;2022-11-06T05:03:58;14.53;;;8.50;;
11123;SDS011;5616;42.692;23.312;2022-11-06T05:06:25;13.53;;;8.40;;
11123;SDS011;5616;42.692;23.312;2022-11-06T05:08:52;9.77;;;7.83;;
11123;SDS011;5616;42.692;23.312;2022-11-06T05:11:19;10.83;;;8.57;;
11123;SDS011;5616;42.692;23.312;2022-11-06T05:13:46;12.83;;;8.80;;
11123;SDS011;5616;42.692;23.312;2022-11-06T05:16:13;12.93;;;8.87;;
11123;SDS011;5616;42.692;23.312;2022-11-06T05:18:40;13.20;;;8.47;;
11123;SDS011;5616;42.692;23.312;2022-11-06T05:21:09;9.50;;;8.60;;
11123;SDS011;5616;42.692;23.312;2022-11-06T05:23:53;10.70;;;8.40;;
11123;SDS011;5616;42.692;23.312;2022-11-06T05:26:20;12.17;;;8.37;;
11123;SDS011;5616;42.692;23.312;2022-11-06T05:28:47;15.40;;;8.57;;
11123;SDS011;5616;42.692;23.312;2022-11-06T05:31:14;10.97;;;8.27;;
11123;SDS011;5616;42.692;23.312;2022-11-06T05:33:41;10.20;;;8.33;;
11123;SDS011;5616;42.692;23.312;2022-11-06T05:36:09;14.97;;;9.33;;
11123;SDS011;5616;42.692;23.312;2022-11-06T05:38:36;13.57;;;9.20;;
11123;SDS011;5616;42.692;23.312;2022-11-06T05:41:03;13.80;;;9.40;;
11123;SDS011;5616;42.692;23.312;2022-11-06T05:43:30;12.50;;;9.77;;
11123;SDS011;5616;42.692;23.312;2022-11-06T05:45:57;13.53;;;9.40;;
11123;SDS011;5616;42.692;23.312;2022-11-06T05:48:24;13.03;;;10.37;;
11123;SDS011;5616;42.692;23.312;2022-11-06T05:50:51;14.07;;;9.60;;
11123;SDS011;5616;42.692;23.312;2022-11-06T05:53:19;15.87;;;9.47;;
11123;SDS011;5616;42.692;23.312;2022-11-06T05:55:46;12.93;;;8.90;;
11123;SDS011;5616;42.692;23.312;2022-11-06T05:58:13;14.83;;;9.37;;
11123;SDS011;5616;42.692;23.312;2022-11-06T06:00:41;10.37;;;8.60;;
11123;SDS011;5616;42.692;23.312;2022-11-06T06:03:08;10.20;;;8.60;;
11123;SDS011;5616;42.692;23.312;2022-11-06T06:05:35;14.00;;;9.00;;
11123;SDS011;5616;42.692;23.312;2022-11-06T06:08:01;11.00;;;8.03;;
11123;SDS011;5616;42.692;23.312;2022-11-06T06:10:30;12.77;;;8.70;;
11123;SDS011;5616;42.692;23.312;2022-11-06T06:12:57;12.73;;;9.30;;
11123;SDS011;5616;42.692;23.312;2022-11-06T06:15:24;15.97;;;9.53;;
11123;SDS011;5616;42.692;23.312;2022-11-06T06:17:51;14.00;;;8.53;;
11123;SDS011;5616;42.692;23.312;2022-11-06T06:20:17;15.77;;;8.10;;
11123;SDS011;5616;42.692;23.312;2022-11-06T06:22:51;14.70;;;8.67;;
11123;SDS011;5616;42.692;23.312;2022-11-06T06:25:19;16.30;;;9.10;;
11123;SDS011;5616;42.692;23.312;2022-11-06T06:27:47;15.47;;;9.60;;
11123;SDS011;5616;42.692;23.312;2022-11-06T06:30:14;13.70;;;9.87;;
11123;SDS011;5616;42.692;23.312;2022-11-06T06:32:42;18.10;;;9.67;;
11123;SDS011;5616;42.692;23.312;2022-11-06T06:35:09;20.17;;;10.20;;
11123;SDS011;5616;42.692;23.312;2022-11-06T06:37:36;13.47;;;9.90;;
11123;SDS011;5616;42.692;23.312;2022-11-06T06:40:03;16.57;;;9.97;;
11123;SDS011;5616;42.692;23.312;2022-11-06T06:42:31;14.57;;;9.57;;
11123;SDS011;5616;42.692;23.312;2022-11-06T06:44:59;17.70;;;10.77;;
11123;SDS011;5616;42.692;23.312;2022-11-06T06:47:26;18.47;;;10.80;;
11123;SDS011;5616;42.692;23.312;2022-11-06T06:49:53;15.70;;;10.03;;
11123;SDS011;5616;42.692;23.312;2022-11-06T06:52:20;17.97;;;10.77;;
11123;SDS011;5616;42.692;23.312;2022-11-06T06:54:47;16.70;;;9.97;;
11123;SDS011;5616;42.692;23.312;2022-11-06T06:57:13;12.00;;;10.30;;
11123;SDS011;5616;42.692;23.312;2022-11-06T06:59:40;14.63;;;10.03;;
11123;SDS011;5616;42.692;23.312;2022-11-06T07:02:09;11.83;;;9.07;;
11123;SDS011;5616;42.692;23.312;2022-11-06T07:04:36;17.40;;;10.77;;
11123;SDS011;5616;42.692;23.312;2022-11-06T07:07:03;16.60;;;10.30;;
11123;SDS011;5616;42.692;23.312;2022-11-06T07:09:30;12.70;;;10.03;;
11123;SDS011;5616;42.692;23.312;2022-11-06T07:11:57;14.27;;;10.20;;
11123;SDS011;5616;42.692;23.312;2022-11-06T07:14:24;14.47;;;9.90;;
11123;SDS011;5616;42.692;23.312;2022-11-06T07:16:51;13.63;;;10.10;;
11123;SDS011;5616;42.692;23.312;2022-11-06T07:19:20;11.77;;;9.33;;
11123;SDS011;5616;42.692;23.312;2022-11-06T07:21:49;13.13;;;10.07;;
11123;SDS011;5616;42.692;23.312;2022-11-06T07:24:16;15.07;;;9.90;;
11123;SDS011;5616;42.692;23.312;2022-11-06T07:26:43;13.03;;;10.00;;
11123;SDS011;5616;42.692;23.312;2022-11-06T07:29:10;17.07;;;10.33;;
11123;SDS011;5616;42.692;23.312;2022-11-06T07:31:37;16.10;;;10.53;;
11123;SDS011;5616;42.692;23.312;2022-11-06T07:34:04;19.83;;;10.77;;
11123;SDS011;5616;42.692;23.312;2022-11-06T07:36:33;13.13;;;9.87;;
11123;SDS011;5616;42.692;23.312;2022-11-06T07:39:00;16.33;;;11.03;;
11123;SDS011;5616;42.692;23.312;2022-11-06T07:41:27;15.77;;;11.00;;
11123;SDS011;5616;42.692;23.312;2022-11-06T07:43:53;13.90;;;10.10;;
11123;SDS011;5616;42.692;23.312;2022-11-06T07:46:20;19.33;;;10.73;;
11123;SDS011;5616;42.692;23.312;2022-11-06T07:48:47;15.80;;;10.83;;
11123;SDS011;5616;42.692;23.312;2022-11-06T07:51:14;14.30;;;10.33;;
11123;SDS011;5616;42.692;23.312;2022-11-06T07:53:42;15.37;;;11.73;;
11123;SDS011;5616;42.692;23.312;2022-11-06T07:56:09;17.27;;;11.23;;
11123;SDS011;5616;42.692;23.312;2022-11-06T07:58:36;20.23;;;11.77;;
11123;SDS011;5616;42.692;23.312;2022-11-06T08:01:03;18.07;;;11.47;;
11123;SDS011;5616;42.692;23.312;2022-11-06T08:03:31;15.13;;;10.83;;
11123;SDS011;5616;42.692;23.312;2022-11-06T08:06:02;15.57;;;10.40;;
11123;SDS011;5616;42.692;23.312;2022-11-06T08:08:29;15.80;;;10.80;;
11123;SDS011;5616;42.692;23.312;2022-11-06T08:11:01;15.27;;;12.00;;
11123;SDS011;5616;42.692;23.312;2022-11-06T08:13:28;15.03;;;11.20;;
11123;SDS011;5616;42.692;23.312;2022-11-06T08:15:58;19.77;;;11.17;;
11123;SDS011;5616;42.692;23.312;2022-11-06T08:18:25;17.13;;;11.83;;
11123;SDS011;5616;42.692;23.312;2022-11-06T08:20:52;15.57;;;11.97;;
11123;SDS011;5616;42.692;23.312;2022-11-06T08:23:19;17.93;;;11.60;;
11123;SDS011;5616;42.692;23.312;2022-11-06T08:25:46;17.77;;;11.67;;
11123;SDS011;5616;42.692;23.312;2022-11-06T08:28:14;17.20;;;12.33;;
11123;SDS011;5616;42.692;23.312;2022-11-06T08:30:41;14.47;;;12.37;;
11123;SDS011;5616;42.692;23.312;2022-11-06T08:33:08;13.97;;;12.47;;
11123;SDS011;5616;42.692;23.312;2022-11-06T08:35:36;19.80;;;13.43;;
11123;SDS011;5616;42.692;23.312;2022-11-06T08:38:03;16.50;;;12.50;;
11123;SDS011;5616;42.692;23.312;2022-11-06T08:40:30;19.60;;;13.87;;
11123;SDS011;5616;42.692;23.312;2022-11-06T08:42:58;19.93;;;14.30;;
11123;SDS011;5616;42.692;23.312;2022-11-06T08:45:27;18.10;;;13.90;;
11123;SDS011;5616;42.692;23.312;2022-11-06T08:47:54;16.87;;;13.80;;
11123;SDS011;5616;42.692;23.312;2022-11-06T08:50:21;19.30;;;14.63;;
11123;SDS011;5616;42.692;23.312;2022-11-06T08:52:47;18.77;;;14.97;;
11123;SDS011;5616;42.692;23.312;2022-11-06T08:55:14;20.37;;;14.47;;
11123;SDS011;5616;42.692;23.312;2022-11-06T08:57:42;18.67;;;14.07;;
11123;SDS011;5616;42.692;23.312;2022-11-06T09:00:09;18.53;;;14.63;;
11123;SDS011;5616;42.692;23.312;2022-11-06T09:02:38;18.37;;;14.23;;
11123;SDS011;5616;42.692;23.312;2022-11-06T09:05:05;16.47;;;13.77;;
11123;SDS011;5616;42.692;23.312;2022-11-06T09:07:32;17.53;;;13.90;;
11123;SDS011;5616;42.692;23.312;2022-11-06T09:09:59;20.73;;;14.20;;
11123;SDS011;5616;42.692;23.312;2022-11-06T09:12:26;20.10;;;13.77;;
11123;SDS011;5616;42.692;23.312;2022-11-06T09:14:53;17.83;;;12.77;;
11123;SDS011;5616;42.692;23.312;2022-11-06T09:17:20;17.70;;;12.80;;
11123;SDS011;5616;42.692;23.312;2022-11-06T09:19:49;15.23;;;12.50;;
11123;SDS011;5616;42.692;23.312;2022-11-06T09:22:17;16.23;;;12.80;;
11123;SDS011;5616;42.692;23.312;2022-11-06T09:24:44;16.57;;;13.33;;
11123;SDS011;5616;42.692;23.312;2022-11-06T09:27:11;14.20;;;12.80;;
11123;SDS011;5616;42.692;23.312;2022-11-06T09:29:38;17.93;;;13.23;;
11123;SDS011;5616;42.692;23.312;2022-11-06T09:32:08;15.90;;;13.20;;
11123;SDS011;5616;42.692;23.312;2022-11-06T09:34:35;12.63;;;11.37;;
11123;SDS011;5616;42.692;23.312;2022-11-06T09:37:03;15.63;;;11.40;;
11123;SDS011;5616;42.692;23.312;2022-11-06T09:39:30;12.27;;;10.97;;
11123;SDS011;5616;42.692;23.312;2022-11-06T09:41:57;12.20;;;10.90;;
11123;SDS011;5616;42.692;23.312;2022-11-06T09:44:32;12.47;;;10.37;;
11123;SDS011;5616;42.692;23.312;2022-11-06T09:47:15;13.17;;;10.63;;
11123;SDS011;5616;42.692;23.312;2022-11-06T09:49:46;12.27;;;10.97;;
11123;SDS011;5616;42.692;23.312;2022-11-06T09:52:19;13.43;;;11.00;;
11123;SDS011;5616;42.692;23.312;2022-11-06T09:54:54;16.07;;;10.63;;
11123;SDS011;5616;42.692;23.312;2022-11-06T09:57:27;13.53;;;9.97;;
11123;SDS011;5616;42.692;23.312;2022-11-06T10:00:00;14.00;;;9.87;;
11123;SDS011;5616;42.692;23.312;2022-11-06T10:02:31;12.87;;;10.13;;
11123;SDS011;5616;42.692;23.312;2022-11-06T10:05:04;12.77;;;10.13;;
11123;SDS011;5616;42.692;23.312;2022-11-06T10:07:40;10.40;;;9.30;;
11123;SDS011;5616;42.692;23.312;2022-11-06T10:10:10;10.93;;;9.80;;
11123;SDS011;5616;42.692;23.312;2022-11-06T10:12:48;11.60;;;9.50;;
11123;SDS011;5616;42.692;23.312;2022-11-06T10:15:26;12.27;;;9.40;;
11123;SDS011;5616;42.692;23.312;2022-11-06T10:18:00;10.07;;;9.00;;
11123;SDS011;5616;42.692;23.312;2022-11-06T10:20:37;10.17;;;8.93;;
11123;SDS011;5616;42.692;23.312;2022-11-06T10:23:17;10.70;;;9.27;;
11123;SDS011;5616;42.692;23.312;2022-11-06T10:25:50;11.30;;;9.40;;
11123;SDS011;5616;42.692;23.312;2022-11-06T10:31:23;10.50;;;8.80;;
11123;SDS011;5616;42.692;23.312;2022-11-06T10:33:59;10.03;;;8.87;;
11123;SDS011;5616;42.692;23.312;2022-11-06T10:36:33;12.13;;;9.43;;
11123;SDS011;5616;42.692;23.312;2022-11-06T10:39:09;11.80;;;9.17;;
11123;SDS011;5616;42.692;23.312;2022-11-06T10:41:41;7.87;;;7.17;;
11123;SDS011;5616;42.692;23.312;2022-11-06T10:44:13;9.53;;;8.00;;
11123;SDS011;5616;42.692;23.312;2022-11-06T10:46:45;8.77;;;7.33;;
11123;SDS011;5616;42.692;23.312;2022-11-06T10:49:19;11.17;;;6.63;;
11123;SDS011;5616;42.692;23.312;2022-11-06T10:51:56;7.40;;;5.90;;
11123;SDS011;5616;42.692;23.312;2022-11-06T10:54:44;7.17;;;6.30;;
11123;SDS011;5616;42.692;23.312;2022-11-06T10:57:25;8.13;;;5.67;;
11123;SDS011;5616;42.692;23.312;2022-11-06T10:59:58;8.93;;;6.93;;
11123;SDS011;5616;42.692;23.312;2022-11-06T11:02:26;9.03;;;7.50;;
11123;SDS011;5616;42.692;23.312;2022-11-06T11:04:56;9.33;;;8.20;;
11123;SDS011;5616;42.692;23.312;2022-11-06T11:07:23;11.03;;;7.17;;
11123;SDS011;5616;42.692;23.312;2022-11-06T11:09:53;7.90;;;7.10;;
11123;SDS011;5616;42.692;23.312;2022-11-06T11:12:21;8.23;;;7.37;;
11123;SDS011;5616;42.692;23.312;2022-11-06T11:15:09;9.63;;;6.80;;
11123;SDS011;5616;42.692;23.312;2022-11-06T11:17:40;9.00;;;6.73;;
11123;SDS011;5616;42.692;23.312;2022-11-06T11:23:12;7.43;;;6.73;;
11123;SDS011;5616;42.692;23.312;2022-11-06T11:25:43;10.03;;;8.63;;
11123;SDS011;5616;42.692;23.312;2022-11-06T11:28:19;10.87;;;8.27;;
11123;SDS011;5616;42.692;23.312;2022-11-06T11:31:00;10.13;;;7.73;;
11123;SDS011;5616;42.692;23.312;2022-11-06T11:33:31;11.07;;;8.77;;
11123;SDS011;5616;42.692;23.312;2022-11-06T11:35:59;11.30;;;9.20;;
11123;SDS011;5616;42.692;23.312;2022-11-06T11:38:27;10.67;;;9.17;;
11123;SDS011;5616;42.692;23.312;2022-11-06T11:41:04;11.23;;;9.80;;
11123;SDS011;5616;42.692;23.312;2022-11-06T11:43:32;11.80;;;10.23;;
11123;SDS011;5616;42.692;23.312;2022-11-06T11:46:18;12.63;;;10.30;;
11123;SDS011;5616;42.692;23.312;2022-11-06T11:48:47;12.20;;;10.90;;
11123;SDS011;5616;42.692;23.312;2022-11-06T11:54:06;11.30;;;10.10;;
11123;SDS011;5616;42.692;23.312;2022-11-06T11:56:46;12.37;;;9.93;;
11123;SDS011;5616;42.692;23.312;2022-11-06T11:59:17;10.77;;;9.50;;
11123;SDS011;5616;42.692;23.312;2022-11-06T12:01:47;14.30;;;10.13;;
11123;SDS011;5616;42.692;23.312;2022-11-06T12:04:20;13.30;;;10.07;;
11123;SDS011;5616;42.692;23.312;2022-11-06T12:06:52;11.53;;;9.87;;
11123;SDS011;5616;42.692;23.312;2022-11-06T12:09:22;12.37;;;9.83;;
11123;SDS011;5616;42.692;23.312;2022-11-06T12:11:54;11.07;;;8.63;;
11123;SDS011;5616;42.692;23.312;2022-11-06T12:14:33;10.77;;;8.73;;
11123;SDS011;5616;42.692;23.312;2022-11-06T12:17:07;11.50;;;7.73;;
11123;SDS011;5616;42.692;23.312;2022-11-06T12:19:40;11.30;;;7.33;;
11123;SDS011;5616;42.692;23.312;2022-11-06T12:22:14;9.80;;;7.43;;
11123;SDS011;5616;42.692;23.312;2022-11-06T12:24:46;8.93;;;7.17;;
11123;SDS011;5616;42.692;23.312;2022-11-06T12:27:20;9.67;;;7.23;;
11123;SDS011;5616;42.692;23.312;2022-11-06T12:29:52;7.73;;;6.30;;
11123;SDS011;5616;42.692;23.312;2022-11-06T12:32:30;9.63;;;6.93;;
11123;SDS011;5616;42.692;23.312;2022-11-06T12:35:06;7.47;;;6.67;;
11123;SDS011;5616;42.692;23.312;2022-11-06T12:37:43;9.10;;;6.30;;
11123;SDS011;5616;42.692;23.312;2022-11-06T12:40:20;8.00;;;7.13;;
11123;SDS011;5616;42.692;23.312;2022-11-06T12:43:00;7.73;;;6.93;;
11123;SDS011;5616;42.692;23.312;2022-11-06T12:45:36;6.10;;;5.50;;
11123;SDS011;5616;42.692;23.312;2022-11-06T12:48:18;7.80;;;6.07;;
11123;SDS011;5616;42.692;23.312;2022-11-06T12:51:00;27.27;;;6.57;;
11123;SDS011;5616;42.692;23.312;2022-11-06T12:53:37;8.17;;;6.47;;
11123;SDS011;5616;42.692;23.312;2022-11-06T12:56:17;9.53;;;6.73;;
11123;SDS011;5616;42.692;23.312;2022-11-06T12:58:57;7.33;;;6.10;;
11123;SDS011;5616;42.692;23.312;2022-11-06T13:01:36;8.77;;;6.50;;
11123;SDS011;5616;42.692;23.312;2022-11-06T13:04:13;7.80;;;6.10;;
11123;SDS011;5616;42.692;23.312;2022-11-06T13:07:00;8.40;;;5.80;;
11123;SDS011;5616;42.692;23.312;2022-11-06T13:09:45;6.87;;;6.17;;
11123;SDS011;5616;42.692;23.312;2022-11-06T13:12:18;6.57;;;5.97;;
11123;SDS011;5616;42.692;23.312;2022-11-06T13:14:57;9.27;;;6.37;;
11123;SDS011;5616;42.692;23.312;2022-11-06T13:17:31;8.10;;;6.20;;
11123;SDS011;5616;42.692;23.312;2022-11-06T13:20:02;6.30;;;5.67;;
11123;SDS011;5616;42.692;23.312;2022-11-06T13:22:36;8.60;;;6.20;;
11123;SDS011;5616;42.692;23.312;2022-11-06T13:25:11;7.87;;;6.07;;
11123;SDS011;5616;42.692;23.312;2022-11-06T13:27:43;7.17;;;6.47;;
11123;SDS011;5616;42.692;23.312;2022-11-06T13:30:18;8.43;;;5.93;;
11123;SDS011;5616;42.692;23.312;2022-11-06T13:32:51;9.60;;;6.53;;
11123;SDS011;5616;42.692;23.312;2022-11-06T13:35:25;8.60;;;6.20;;
11123;SDS011;5616;42.692;23.312;2022-11-06T13:37:53;7.30;;;5.70;;
11123;SDS011;5616;42.692;23.312;2022-11-06T13:40:24;8.17;;;6.30;;
11123;SDS011;5616;42.692;23.312;2022-11-06T13:42:56;8.90;;;6.67;;
11123;SDS011;5616;42.692;23.312;2022-11-06T13:45:31;8.00;;;5.83;;
11123;SDS011;5616;42.692;23.312;2022-11-06T13:48:05;7.20;;;6.23;;
11123;SDS011;5616;42.692;23.312;2022-11-06T13:50:46;8.40;;;5.73;;
11123;SDS011;5616;42.692;23.312;2022-11-06T13:53:19;8.07;;;6.20;;
11123;SDS011;5616;42.692;23.312;2022-11-06T13:55:57;6.93;;;5.90;;
11123;SDS011;5616;42.692;23.312;2022-11-06T14:01:35;6.53;;;5.83;;
11123;SDS011;5616;42.692;23.312;2022-11-06T14:04:24;7.53;;;5.83;;
11123;SDS011;5616;42.692;23.312;2022-11-06T14:07:04;6.27;;;4.90;;
11123;SDS011;5616;42.692;23.312;2022-11-06T14:09:34;8.33;;;5.60;;
11123;SDS011;5616;42.692;23.312;2022-11-06T14:12:05;7.93;;;7.10;;
11123;SDS011;5616;42.692;23.312;2022-11-06T14:14:38;8.93;;;7.80;;
11123;SDS011;5616;42.692;23.312;2022-11-06T14:17:09;8.37;;;6.70;;
11123;SDS011;5616;42.692;23.312;2022-11-06T14:19:38;7.47;;;5.40;;
11123;SDS011;5616;42.692;23.312;2022-11-06T14:22:15;7.37;;;5.33;;
11123;SDS011;5616;42.692;23.312;2022-11-06T14:24:43;7.43;;;5.67;;
11123;SDS011;5616;42.692;23.312;2022-11-06T14:27:11;7.47;;;5.80;;
11123;SDS011;5616;42.692;23.312;2022-11-06T14:29:59;6.53;;;5.70;;
11123;SDS011;5616;42.692;23.312;2022-11-06T14:32:37;6.57;;;5.50;;
11123;SDS011;5616;42.692;23.312;2022-11-06T14:44:23;10.47;;;6.33;;
11123;SDS011;5616;42.692;23.312;2022-11-06T14:46:55;8.23;;;5.23;;
11123;SDS011;5616;42.692;23.312;2022-11-06T14:49:29;6.87;;;5.37;;
11123;SDS011;5616;42.692;23.312;2022-11-06T14:52:02;7.40;;;5.37;;
11123;SDS011;5616;42.692;23.312;2022-11-06T14:54:31;6.70;;;5.27;;
11123;SDS011;5616;42.692;23.312;2022-11-06T14:57:02;6.77;;;4.87;;
11123;SDS011;5616;42.692;23.312;2022-11-06T14:59:31;6.43;;;5.17;;
11123;SDS011;5616;42.692;23.312;2022-11-06T15:02:01;5.20;;;4.70;;
11123;SDS011;5616;42.692;23.312;2022-11-06T15:04:40;7.37;;;4.87;;
11123;SDS011;5616;42.692;23.312;2022-11-06T15:07:26;5.20;;;4.67;;
11123;SDS011;5616;42.692;23.312;2022-11-06T15:09:58;6.70;;;4.43;;
11123;SDS011;5616;42.692;23.312;2022-11-06T15:15:34;5.63;;;4.17;;
11123;SDS011;5616;42.692;23.312;2022-11-06T15:18:06;7.30;;;4.00;;
11123;SDS011;5616;42.692;23.312;2022-11-06T15:20:38;5.77;;;5.10;;
11123;SDS011;5616;42.692;23.312;2022-11-06T15:23:08;6.60;;;4.80;;
11123;SDS011;5616;42.692;23.312;2022-11-06T15:25:44;6.53;;;5.23;;
11123;SDS011;5616;42.692;23.312;2022-11-06T15:28:16;5.40;;;4.63;;